Time;durP1;ratioP1;P1;durP2;ratioP2;P2;SDS_P1;SDS_P2;PMS_P1;PMS_P2;Temp;Humidity;BMP_temperature;BMP_pressure;BME280_temperature;BME280_humidity;BME280_pressure;Samples;Min_cycle;Max_cycle;Signal;HPM_P1;HPM_P2
2022/06/09 00:00:20;;;;;;;;;1.67;1.67;;;;;18.11;61.68;101033.03;5013911;28;47415;-90
2022/06/09 00:02:49;;;;;;;;;1.00;1.00;;;;;18.22;62.52;101056.56;5015319;28;45442;-91
2022/06/09 00:05:15;;;;;;;;;25.33;22.67;;;;;18.20;62.49;101072.84;5013305;28;45505;-90
2022/06/09 00:07:41;;;;;;;;;8.67;4.00;;;;;18.08;62.27;101055.69;5016851;28;45430;-87
2022/06/09 00:10:15;;;;;;;;;4.00;2.67;;;;;17.93;62.05;101045.97;4999568;28;45995;-87
2022/06/09 00:12:41;;;;;;;;;0.67;0.67;;;;;18.10;62.04;101086.13;5009935;28;45472;-86
2022/06/09 00:15:09;;;;;;;;;1.00;1.00;;;;;18.10;61.67;101082.56;5013464;28;46549;-84
2022/06/09 00:17:34;;;;;;;;;1.33;1.33;;;;;18.10;62.80;101085.25;5015186;28;45457;-84
2022/06/09 00:20:00;;;;;;;;;1.00;1.00;;;;;17.95;62.35;101049.41;5013617;28;45499;-85
2022/06/09 00:22:25;;;;;;;;;1.00;1.00;;;;;18.04;61.98;101080.28;5014510;28;45465;-84
2022/06/09 00:24:51;;;;;;;;;1.00;1.00;;;;;17.90;62.36;101054.28;5017647;28;45466;-84
2022/06/09 00:27:16;;;;;;;;;0.00;0.00;;;;;17.75;62.14;101040.00;5012879;28;45378;-90
2022/06/09 00:29:41;;;;;;;;;0.67;0.00;;;;;17.67;62.02;101042.34;5015114;28;46152;-90
2022/06/09 00:32:08;;;;;;;;;2.33;1.67;;;;;18.00;62.21;101095.81;5004473;28;45538;-88
2022/06/09 00:34:34;;;;;;;;;1.00;1.00;;;;;17.85;61.99;101086.09;5016222;28;45328;-88
2022/06/09 00:36:59;;;;;;;;;1.00;1.00;;;;;17.97;61.58;101101.41;5017086;28;45814;-83
2022/06/09 00:39:24;;;;;;;;;3.00;2.00;;;;;17.71;61.82;101060.91;5009545;28;45475;-82
2022/06/09 00:41:50;;;;;;;;;1.33;1.00;;;;;17.92;61.89;101101.75;5009783;28;45493;-83
2022/06/09 00:44:24;;;;;;;;;1.67;1.00;;;;;17.61;62.05;101051.72;5003505;28;45463;-83
2022/06/09 00:46:55;;;;;;;;;3.33;1.00;;;;;17.86;61.81;101094.09;5015226;28;45505;-82
2022/06/09 00:49:53;;;;;;;;;3.00;0.00;;;;;17.68;61.55;101077.28;5014097;28;45871;-82
2022/06/09 00:52:21;;;;;;;;;1.00;1.00;;;;;17.69;61.42;101078.16;4985375;28;45598;-85
2022/06/09 00:54:51;;;;;;;;;0.00;0.00;;;;;17.82;61.32;101102.50;5015622;28;45426;-83
2022/06/09 00:58:12;;;;;;;;;3.00;0.00;;;;;17.64;61.79;101077.59;5011915;28;45522;-84
2022/06/09 01:00:50;;;;;;;;;1.00;0.00;;;;;17.44;61.86;101047.50;5010101;28;47266;-86
2022/06/09 01:03:23;;;;;;;;;1.00;1.00;;;;;17.77;62.04;101108.16;5010337;28;45478;-83
2022/06/09 01:05:53;;;;;;;;;1.33;1.33;;;;;17.77;61.84;101105.47;5010809;28;45566;-83
2022/06/09 01:08:18;;;;;;;;;2.00;2.00;;;;;17.66;62.00;101094.53;5013748;28;45462;-82
2022/06/09 01:10:44;;;;;;;;;1.33;1.33;;;;;17.62;62.11;101101.97;5007396;28;46230;-87
2022/06/09 01:13:09;;;;;;;;;1.00;1.00;;;;;17.47;62.00;101066.13;5014753;28;45492;-88
2022/06/09 01:16:01;;;;;;;;;1.67;1.67;;;;;17.53;61.77;101086.41;5012025;28;45457;-87
2022/06/09 01:18:55;;;;;;;;;4.00;1.00;;;;;17.56;61.85;101099.69;5012714;28;45742;-85
2022/06/09 01:21:52;;;;;;;;;0.67;0.67;;;;;16.61;62.12;100941.69;4973866;28;46516;-88
2022/06/09 01:25:04;;;;;;;;;1.00;1.00;;;;;17.61;62.16;101113.72;4951605;28;45564;-86
2022/06/09 01:27:40;;;;;;;;;2.67;0.00;;;;;17.63;61.67;101119.88;4954927;28;45485;-87
2022/06/09 01:30:19;;;;;;;;;2.00;2.00;;;;;17.45;62.27;101111.19;4972764;28;45425;-87
2022/06/09 01:33:04;;;;;;;;;1.00;1.00;;;;;17.54;62.37;101117.81;4966189;28;46296;-88
2022/06/09 01:35:41;;;;;;;;;0.67;0.67;;;;;17.49;62.17;101122.66;4959190;28;45646;-88
2022/06/09 01:38:07;;;;;;;;;1.00;1.00;;;;;17.23;62.11;101071.34;4971424;28;45464;-88
2022/06/09 01:40:33;;;;;;;;;1.00;1.00;;;;;17.41;62.46;101111.50;4970576;28;45471;-86
2022/06/09 01:42:59;;;;;;;;;1.67;1.00;;;;;16.85;62.14;101022.69;4971135;28;48409;-86
2022/06/09 01:45:43;;;;;;;;;1.00;1.00;;;;;17.52;62.13;101134.06;4975625;28;45464;-87
2022/06/09 01:48:19;;;;;;;;;1.00;1.00;;;;;17.51;62.30;101129.66;4970276;28;45754;-88
2022/06/09 01:50:50;;;;;;;;;3.00;1.00;;;;;17.50;62.49;101133.31;4973996;28;46637;-87
2022/06/09 01:53:25;;;;;;;;;3.00;0.00;;;;;17.33;62.39;101114.72;4969665;28;46319;-87
2022/06/09 01:55:58;;;;;;;;;2.00;0.67;;;;;17.24;62.09;101099.16;4973315;28;45456;-87
2022/06/09 01:58:29;;;;;;;;;0.00;0.00;;;;;17.29;62.39;101105.09;4990850;28;46062;-88
2022/06/09 02:00:59;;;;;;;;;2.33;1.00;;;;;17.50;62.03;101143.22;5008160;28;45632;-87
2022/06/09 02:03:30;;;;;;;;;4.00;1.00;;;;;17.36;62.30;101130.66;5012405;28;45556;-87
2022/06/09 02:05:59;;;;;;;;;2.00;1.00;;;;;17.20;62.76;101108.38;5010017;28;45989;-87
2022/06/09 02:08:25;;;;;;;;;1.00;1.00;;;;;17.20;62.09;101105.69;5007900;28;45724;-86
2022/06/09 02:10:59;;;;;;;;;0.33;0.00;;;;;17.28;62.73;101125.78;5008069;28;45467;-86
2022/06/09 02:13:30;;;;;;;;;0.00;0.00;;;;;17.20;62.45;101122.72;5012502;28;46960;-87
2022/06/09 02:16:00;;;;;;;;;2.00;2.00;;;;;17.47;62.13;101167.69;5008941;28;45518;-85
2022/06/09 02:18:29;;;;;;;;;1.00;0.00;;;;;17.41;62.15;101154.59;5008212;28;45438;-87
2022/06/09 02:21:04;;;;;;;;;3.00;1.00;;;;;17.43;62.46;101166.16;5012192;28;45487;-86
2022/06/09 02:23:30;;;;;;;;;1.00;1.00;;;;;17.42;62.08;101168.00;5011039;28;45677;-85
2022/06/09 02:25:55;;;;;;;;;1.00;0.00;;;;;17.14;62.48;101123.13;5011826;28;45576;-87
2022/06/09 02:28:21;;;;;;;;;1.00;1.00;;;;;17.35;61.92;101157.69;5004891;28;45399;-87
2022/06/09 02:30:47;;;;;;;;;2.00;2.00;;;;;17.29;62.42;101151.75;5008655;28;45565;-86
2022/06/09 02:33:12;;;;;;;;;1.00;1.00;;;;;17.31;62.73;101154.34;5008191;28;45644;-86
2022/06/09 02:35:38;;;;;;;;;2.00;1.33;;;;;17.28;62.12;101149.19;5008595;28;45353;-86
2022/06/09 02:38:04;;;;;;;;;1.00;1.00;;;;;17.34;62.48;101158.69;5010612;28;45551;-86
2022/06/09 02:40:31;;;;;;;;;2.00;1.00;;;;;17.13;62.49;101137.56;5011061;28;45773;-85
2022/06/09 02:42:57;;;;;;;;;2.00;1.00;;;;;17.07;61.94;101125.34;5007280;28;46485;-87
2022/06/09 02:45:23;;;;;;;;;0.00;0.00;;;;;16.90;62.41;101089.69;5008305;28;47203;-86
2022/06/09 02:47:48;;;;;;;;;2.00;2.00;;;;;16.93;62.34;101109.22;5010308;28;45825;-87
2022/06/09 02:50:14;;;;;;;;;2.67;2.67;;;;;17.29;61.68;101178.69;5011939;28;45592;-86
2022/06/09 02:52:41;;;;;;;;;2.33;0.33;;;;;17.26;62.12;101167.25;5011738;28;45444;-86
2022/06/09 02:55:08;;;;;;;;;2.00;1.00;;;;;17.23;62.01;101168.34;5008145;28;45513;-86
2022/06/09 02:57:33;;;;;;;;;1.00;1.00;;;;;16.58;62.15;101058.50;5010495;28;45522;-87
2022/06/09 02:59:58;;;;;;;;;1.00;1.00;;;;;17.27;62.45;101171.69;5009341;28;45587;-84
2022/06/09 03:02:24;;;;;;;;;0.33;0.33;;;;;17.28;62.71;101178.81;5006213;28;48139;-87
2022/06/09 03:04:50;;;;;;;;;1.67;0.33;;;;;17.09;62.31;101144.97;5011319;28;46770;-86
2022/06/09 03:07:15;;;;;;;;;1.33;0.00;;;;;17.22;62.29;101171.13;5017284;28;45378;-85
2022/06/09 03:09:41;;;;;;;;;3.00;1.00;;;;;16.89;62.20;101118.47;5013545;28;45462;-86
2022/06/09 03:12:07;;;;;;;;;3.67;1.00;;;;;17.25;62.67;101185.22;5008248;28;47043;-85
2022/06/09 03:14:33;;;;;;;;;0.67;0.67;;;;;17.15;62.35;101164.41;5011106;28;45821;-85
2022/06/09 03:16:59;;;;;;;;;2.67;1.00;;;;;17.12;62.48;101162.78;5014694;28;45458;-84
2022/06/09 03:19:25;;;;;;;;;0.33;0.33;;;;;17.13;62.61;101158.25;5012090;28;45504;-86
2022/06/09 03:21:50;;;;;;;;;1.33;1.00;;;;;16.93;62.53;101127.19;5013651;28;46085;-86
2022/06/09 03:24:15;;;;;;;;;1.00;0.67;;;;;16.82;62.62;101118.00;5012166;28;45553;-86
2022/06/09 03:26:41;;;;;;;;;2.67;2.00;;;;;17.03;62.71;101155.28;5013533;28;45300;-86
2022/06/09 03:29:06;;;;;;;;;2.00;1.67;;;;;17.04;62.64;101173.16;5013080;28;45594;-86
2022/06/09 03:31:32;;;;;;;;;1.00;1.00;;;;;17.01;62.77;101158.06;5013393;28;45630;-87
2022/06/09 03:33:57;;;;;;;;;1.00;1.00;;;;;16.80;62.44;101130.69;5012753;28;45584;-85
2022/06/09 03:36:23;;;;;;;;;0.67;0.67;;;;;17.07;62.94;101187.31;5011614;28;45445;-86
2022/06/09 03:38:48;;;;;;;;;2.00;2.00;;;;;17.09;62.54;101196.16;5011397;28;45598;-87
2022/06/09 03:41:14;;;;;;;;;0.00;0.00;;;;;16.95;62.75;101171.94;5013086;28;45812;-86
2022/06/09 03:43:39;;;;;;;;;5.33;1.00;;;;;17.04;62.88;101187.50;5007840;28;45380;-86
2022/06/09 03:46:05;;;;;;;;;0.00;0.00;;;;;17.05;62.65;101204.53;5013739;28;45545;-86
2022/06/09 03:48:31;;;;;;;;;2.00;0.67;;;;;17.05;62.73;101202.69;5013099;28;45462;-85
2022/06/09 03:50:56;;;;;;;;;2.33;2.33;;;;;16.80;62.89;101165.66;5010002;28;46047;-85
2022/06/09 03:53:22;;;;;;;;;0.00;0.00;;;;;16.67;63.19;101145.88;5004297;28;45395;-85
2022/06/09 03:55:47;;;;;;;;;5.00;1.00;;;;;16.98;63.10;101208.56;5013222;28;45824;-84
2022/06/09 03:58:13;;;;;;;;;3.00;2.00;;;;;16.85;62.74;101201.25;5014951;28;45621;-86
2022/06/09 04:00:38;;;;;;;;;4.00;2.00;;;;;16.97;63.17;101229.22;5011485;28;45497;-86
2022/06/09 04:03:04;;;;;;;;;1.00;1.00;;;;;16.88;62.90;101210.97;5011114;28;45455;-86
2022/06/09 04:05:31;;;;;;;;;2.67;2.67;;;;;16.67;63.07;101180.84;5012239;28;45507;-85
2022/06/09 04:07:58;;;;;;;;;1.33;1.33;;;;;16.86;63.21;101223.69;5012764;28;45731;-85
2022/06/09 04:10:27;;;;;;;;;1.67;0.00;;;;;16.97;63.05;101234.63;5014292;28;46553;-86
2022/06/09 04:12:53;;;;;;;;;1.00;1.00;;;;;16.78;63.11;101207.94;5015882;28;45422;-86
2022/06/09 04:15:19;;;;;;;;;1.00;1.00;;;;;16.95;63.08;101231.19;5011295;28;45484;-86
2022/06/09 04:17:46;;;;;;;;;3.67;2.67;;;;;16.94;62.91;101247.41;5012716;28;45499;-86
2022/06/09 04:20:14;;;;;;;;;2.00;2.00;;;;;16.93;63.39;101248.38;5012290;28;46587;-86
2022/06/09 04:22:39;;;;;;;;;2.00;1.00;;;;;16.66;63.24;101208.72;5014354;28;46067;-87
2022/06/09 04:25:06;;;;;;;;;1.00;1.00;;;;;16.89;63.28;101242.31;5009814;28;45367;-86
2022/06/09 04:27:32;;;;;;;;;2.33;1.00;;;;;16.92;63.37;101247.50;5011030;28;46098;-85
2022/06/09 04:29:57;;;;;;;;;1.33;1.33;;;;;16.53;63.47;101189.78;5011799;28;46713;-85
2022/06/09 04:32:24;;;;;;;;;5.00;2.33;;;;;16.93;63.27;101264.53;5010221;28;45678;-86
2022/06/09 04:34:49;;;;;;;;;3.00;2.33;;;;;16.58;63.07;101205.66;5008993;28;45427;-86
2022/06/09 04:37:15;;;;;;;;;3.00;1.00;;;;;16.79;63.42;101244.72;5014577;28;45429;-86
2022/06/09 04:39:41;;;;;;;;;3.00;1.33;;;;;16.74;63.32;101241.41;5013567;28;46157;-86
2022/06/09 04:42:07;;;;;;;;;3.00;0.67;;;;;16.91;63.34;101269.16;5012322;28;45597;-86
2022/06/09 04:44:33;;;;;;;;;1.33;1.33;;;;;16.54;63.71;101206.78;5009853;28;45545;-86
2022/06/09 04:46:58;;;;;;;;;1.00;1.00;;;;;16.66;63.23;101238.31;5016770;28;45359;-84
2022/06/09 04:49:24;;;;;;;;;1.33;1.00;;;;;16.92;63.57;101277.13;5013459;28;46220;-85
2022/06/09 04:51:49;;;;;;;;;2.33;2.33;;;;;16.45;63.62;101203.69;5012667;28;45377;-85
2022/06/09 04:54:14;;;;;;;;;1.00;1.00;;;;;16.56;63.71;101226.41;5014535;28;45382;-87
2022/06/09 04:56:40;;;;;;;;;1.00;1.00;;;;;16.82;63.83;101266.06;5014078;28;45776;-84
2022/06/09 04:59:05;;;;;;;;;1.00;1.00;;;;;16.81;63.91;101266.16;5012633;28;46373;-86
2022/06/09 05:01:31;;;;;;;;;1.00;1.00;;;;;16.94;63.74;101301.28;5012502;28;46617;-87
2022/06/09 05:03:59;;;;;;;;;3.00;2.33;;;;;16.90;63.72;101289.81;5032445;28;45488;-87
2022/06/09 05:06:26;;;;;;;;;3.00;2.00;;;;;16.94;63.82;101291.38;5043765;28;45706;-89
2022/06/09 05:08:53;;;;;;;;;1.00;1.00;;;;;16.75;63.90;101253.03;5010716;28;46087;-87
2022/06/09 05:11:19;;;;;;;;;1.00;1.00;;;;;16.73;63.82;101253.13;5012430;28;45435;-86
2022/06/09 05:13:44;;;;;;;;;1.00;1.00;;;;;17.04;63.85;101300.63;5006466;28;45565;-87
2022/06/09 05:16:10;;;;;;;;;3.67;2.33;;;;;16.78;63.55;101253.72;5014974;28;45647;-88
2022/06/09 05:18:37;;;;;;;;;2.00;2.00;;;;;16.96;63.65;101296.66;5011737;28;47378;-85
2022/06/09 05:21:04;;;;;;;;;2.67;2.00;;;;;17.09;64.03;101314.66;5013949;28;45638;-87
2022/06/09 05:23:30;;;;;;;;;3.33;2.00;;;;;17.11;64.00;101309.16;5014654;28;45578;-85
2022/06/09 05:25:58;;;;;;;;;3.00;1.33;;;;;17.00;64.07;101295.53;5012941;28;45652;-92
2022/06/09 05:28:26;;;;;;;;;3.00;3.00;;;;;17.18;63.85;101321.28;5015464;28;46260;-86
2022/06/09 05:30:52;;;;;;;;;1.67;1.67;;;;;16.97;63.55;101287.59;5010353;28;46785;-90
2022/06/09 05:33:18;;;;;;;;;1.67;1.67;;;;;17.21;63.76;101325.66;5011819;28;45556;-90
2022/06/09 05:35:43;;;;;;;;;1.33;0.00;;;;;16.58;63.92;101224.47;5014713;28;45515;-90
2022/06/09 05:46:28;;;;;;;;;5.00;1.67;;;;;17.18;63.65;101313.22;5019931;28;46394;-94
2022/06/09 05:49:18;;;;;;;;;2.00;2.00;;;;;17.24;63.98;101318.22;5025898;28;46136;-95
2022/06/09 05:51:45;;;;;;;;;3.67;2.67;;;;;17.38;63.52;101351.53;5022768;28;45430;-96
2022/06/09 05:54:37;;;;;;;;;4.00;4.00;;;;;17.47;63.37;101368.00;5062921;28;45462;-96
2022/06/09 05:57:03;;;;;;;;;4.67;3.67;;;;;16.97;63.65;101263.38;5027237;28;45286;-94
2022/06/09 06:04:35;;;;;;;;;3.00;3.00;;;;;17.52;63.38;101332.66;5016917;28;45349;-95
2022/06/09 06:07:00;;;;;;;;;1.00;1.00;;;;;17.59;63.44;101341.22;5020166;28;45340;-96
2022/06/09 06:09:27;;;;;;;;;4.67;2.00;;;;;17.60;63.47;101357.28;5003970;28;45680;-96
2022/06/09 06:11:52;;;;;;;;;1.00;1.00;;;;;17.51;63.37;101322.81;5720476;22;45108;-96
2022/06/09 06:14:23;;;;;;;;;2.33;2.33;;;;;16.59;62.70;101181.31;5082495;27;44804;-96
2022/06/09 06:16:49;;;;;;;;;2.00;2.00;;;;;17.02;62.94;101245.09;5074440;28;45346;-96
2022/06/09 06:19:17;;;;;;;;;1.33;1.33;;;;;17.45;62.57;101299.84;5066397;28;45462;-93
2022/06/09 06:21:44;;;;;;;;;2.00;2.00;;;;;17.99;63.02;101377.31;5050815;28;45456;-93
2022/06/09 06:24:10;;;;;;;;;3.00;2.00;;;;;18.10;62.73;101373.94;5055116;28;45387;-91
2022/06/09 06:26:36;;;;;;;;;1.00;1.00;;;;;16.78;62.33;101153.25;5124210;22;45486;-96
2022/06/09 06:29:03;;;;;;;;;3.33;2.33;;;;;17.86;61.73;101326.00;5039549;28;45430;-95
2022/06/09 06:31:29;;;;;;;;;3.33;3.00;;;;;17.70;62.01;101292.88;5039449;28;45508;-92
2022/06/09 06:33:54;;;;;;;;;2.00;2.00;;;;;17.62;61.37;101265.53;5030817;28;45276;-96
2022/06/09 06:36:20;;;;;;;;;3.00;3.00;;;;;17.43;62.21;101234.38;5037074;28;45549;-94
2022/06/09 06:38:45;;;;;;;;;2.00;2.00;;;;;17.75;61.90;101265.59;5038910;28;45938;-94
2022/06/09 06:41:12;;;;;;;;;2.33;1.67;;;;;17.59;61.08;101246.88;5041972;28;44820;-96
2022/06/09 06:43:38;;;;;;;;;3.33;2.00;;;;;18.53;61.10;101389.97;5038642;28;45395;-89
2022/06/09 06:46:05;;;;;;;;;2.33;1.67;;;;;17.97;60.43;101294.75;5044908;28;45494;-94
2022/06/09 06:48:32;;;;;;;;;3.67;2.00;;;;;17.39;60.75;101192.41;5038629;28;45942;-96
2022/06/09 06:50:58;;;;;;;;;1.00;1.00;;;;;17.81;61.31;101251.75;5034317;28;45745;-95
2022/06/09 06:53:24;;;;;;;;;3.00;1.67;;;;;18.22;60.87;101321.84;5047315;28;45510;-96
2022/06/09 06:55:50;;;;;;;;;4.67;4.00;;;;;17.57;60.36;101209.22;5032057;28;45484;-87
2022/06/09 06:58:15;;;;;;;;;2.67;2.67;;;;;18.38;60.55;101347.78;5039794;28;45299;-92
2022/06/09 07:00:42;;;;;;;;;3.67;2.33;;;;;18.65;60.15;101391.84;5044864;28;45408;-93
2022/06/09 07:03:08;;;;;;;;;2.00;1.00;;;;;18.44;59.83;101350.09;5042003;28;45425;-92
2022/06/09 07:05:34;;;;;;;;;2.00;1.67;;;;;18.79;59.46;101408.97;5044297;28;45388;-93
2022/06/09 07:08:00;;;;;;;;;4.33;2.33;;;;;18.77;59.74;101406.38;5038450;28;46052;-95
2022/06/09 07:10:25;;;;;;;;;3.00;2.00;;;;;18.85;59.89;101425.66;5040412;28;45450;-94
2022/06/09 07:12:51;;;;;;;;;3.67;1.00;;;;;18.95;59.78;101426.75;5043119;28;45423;-94
2022/06/09 07:15:16;;;;;;;;;2.67;2.00;;;;;19.07;60.21;101434.97;5035164;28;45610;-92
2022/06/09 07:17:42;;;;;;;;;4.00;2.00;;;;;19.10;59.05;101435.63;5029903;28;46010;-92
2022/06/09 07:20:11;;;;;;;;;7.00;4.00;;;;;19.01;58.73;101420.06;5037551;28;45555;-92
2022/06/09 07:22:36;;;;;;;;;5.00;5.00;;;;;19.19;58.23;101448.50;5040582;28;45478;-89
2022/06/09 07:25:03;;;;;;;;;2.33;2.33;;;;;19.19;57.44;101444.94;5040872;28;45464;-90
2022/06/09 07:27:28;;;;;;;;;3.00;3.00;;;;;19.23;57.55;101451.88;5034517;28;45438;-90
2022/06/09 07:29:54;;;;;;;;;3.67;3.67;;;;;19.18;57.43;101433.28;5033532;28;45384;-90
2022/06/09 07:32:19;;;;;;;;;3.67;3.00;;;;;19.31;57.11;101443.22;5028759;28;45755;-90
2022/06/09 07:34:45;;;;;;;;;3.00;2.67;;;;;19.27;56.90;101430.88;5037833;28;45523;-91
2022/06/09 07:37:11;;;;;;;;;3.33;3.00;;;;;19.37;56.37;101442.81;5039812;28;46294;-90
2022/06/09 07:39:36;;;;;;;;;2.00;2.00;;;;;19.39;56.60;101444.44;5039393;28;45427;-90
2022/06/09 07:42:02;;;;;;;;;3.00;3.00;;;;;19.60;55.99;101470.97;5037812;28;45509;-90
2022/06/09 07:44:28;;;;;;;;;2.00;2.00;;;;;19.70;55.98;101463.09;5029850;28;45658;-90
2022/06/09 07:46:53;;;;;;;;;3.67;3.00;;;;;19.75;56.25;101469.88;5039303;28;46274;-91
2022/06/09 07:49:19;;;;;;;;;2.67;2.67;;;;;19.82;55.09;101473.88;5039148;28;45704;-91
2022/06/09 07:51:44;;;;;;;;;3.67;3.67;;;;;19.85;55.70;101477.34;5038859;28;45522;-91
2022/06/09 07:54:10;;;;;;;;;2.67;2.00;;;;;19.74;55.58;101459.19;5040133;28;45520;-92
2022/06/09 07:56:36;;;;;;;;;5.00;4.33;;;;;19.84;55.28;101462.09;5039251;28;46196;-91
2022/06/09 07:59:06;;;;;;;;;3.00;1.67;;;;;19.92;54.93;101475.94;5027961;28;45472;-91
2022/06/09 08:01:32;;;;;;;;;4.33;1.00;;;;;19.77;54.62;101437.31;5039154;28;45415;-93
2022/06/09 08:03:57;;;;;;;;;3.33;3.00;;;;;19.82;54.50;101438.72;5040432;28;45579;-94
2022/06/09 08:06:23;;;;;;;;;7.00;4.33;;;;;19.85;54.62;101445.75;5038179;28;46960;-92
2022/06/09 08:08:49;;;;;;;;;4.67;3.00;;;;;20.05;54.47;101473.22;5038687;28;45833;-92
2022/06/09 08:11:15;;;;;;;;;2.67;2.00;;;;;19.97;54.29;101461.13;5041915;28;45334;-93
2022/06/09 08:13:40;;;;;;;;;4.00;4.00;;;;;20.15;54.35;101475.16;5042166;28;45809;-94
2022/06/09 08:16:07;;;;;;;;;3.33;2.00;;;;;20.20;54.04;101472.09;5033084;28;45452;-93
2022/06/09 08:18:32;;;;;;;;;4.00;2.33;;;;;20.38;53.66;101473.47;5032610;28;45376;-91
2022/06/09 08:20:58;;;;;;;;;4.67;2.00;;;;;20.33;53.51;101463.97;5037087;28;45438;-92
2022/06/09 08:23:25;;;;;;;;;4.00;2.33;;;;;20.54;52.97;101478.63;5039335;28;45682;-91
2022/06/09 08:25:55;;;;;;;;;5.00;3.67;;;;;20.53;52.46;101486.84;5039064;28;47063;-94
2022/06/09 08:28:22;;;;;;;;;2.67;2.00;;;;;20.37;52.52;101469.03;5039388;28;45310;-90
2022/06/09 08:30:51;;;;;;;;;3.33;3.33;;;;;20.81;52.52;101492.00;5037934;28;45377;-88
2022/06/09 08:33:17;;;;;;;;;3.67;2.00;;;;;20.98;50.22;101462.75;5036555;28;45423;-85
2022/06/09 08:35:44;;;;;;;;;2.00;2.00;;;;;21.48;49.20;101490.56;5037100;28;45495;-86
2022/06/09 08:38:10;;;;;;;;;2.33;2.00;;;;;21.82;48.93;101499.63;5037209;28;45596;-85
2022/06/09 08:40:49;;;;;;;;;2.00;2.00;;;;;21.67;48.97;101501.69;5038669;28;45418;-94
2022/06/09 08:43:34;;;;;;;;;4.00;2.00;;;;;21.66;48.74;101505.41;5044354;28;45311;-94
2022/06/09 08:46:13;;;;;;;;;2.67;1.33;;;;;21.81;48.79;101497.03;5034145;28;46167;-85
2022/06/09 08:48:43;;;;;;;;;2.00;2.00;;;;;21.88;47.39;101493.69;5024831;28;45512;-87
2022/06/09 08:51:15;;;;;;;;;1.67;1.33;;;;;21.96;47.60;101493.09;5035715;28;45728;-90
2022/06/09 08:53:58;;;;;;;;;1.33;1.33;;;;;22.06;47.98;101471.50;5036462;28;45455;-90
2022/06/09 08:56:30;;;;;;;;;2.00;2.00;;;;;22.49;47.64;101471.59;5036849;28;47400;-90
2022/06/09 08:59:12;;;;;;;;;2.50;1.00;;;;;22.87;46.63;101470.25;5036567;28;45458;-90
2022/06/09 09:01:41;;;;;;;;;3.75;1.00;;;;;23.53;45.41;101489.16;5027570;28;45418;-92
2022/06/09 09:04:24;;;;;;;;;1.00;1.00;;;;;24.02;44.99;101471.25;5036334;28;45396;-91
2022/06/09 09:06:56;;;;;;;;;2.00;2.00;;;;;24.59;44.47;101465.28;5038137;28;45406;-91
2022/06/09 09:09:40;;;;;;;;;1.75;1.00;;;;;25.19;42.72;101473.38;5037923;28;45393;-94
2022/06/09 09:12:36;;;;;;;;;2.50;1.00;;;;;25.34;41.39;101471.91;5031531;28;45459;-89
2022/06/09 09:15:02;;;;;;;;;3.00;1.50;;;;;25.19;40.34;101471.53;5036470;28;45775;-87
2022/06/09 09:17:45;;;;;;;;;1.00;1.00;;;;;25.38;41.75;101478.81;5031781;28;46087;-83
2022/06/09 09:20:26;;;;;;;;;1.00;1.00;;;;;25.76;40.72;101473.41;5031769;28;45544;-91
2022/06/09 09:23:07;;;;;;;;;1.00;1.00;;;;;25.81;40.79;101469.22;5034461;28;45483;-89
2022/06/09 09:25:53;;;;;;;;;2.50;1.00;;;;;25.75;39.97;101485.34;5035342;28;45747;-86
2022/06/09 09:28:19;;;;;;;;;2.00;2.00;;;;;25.56;39.30;101484.38;5033314;28;46398;-87
2022/06/09 09:31:12;;;;;;;;;5.75;2.00;;;;;25.28;39.88;101492.44;5036068;28;45416;-91
2022/06/09 09:33:40;;;;;;;;;3.00;1.00;;;;;24.47;39.59;101390.06;5035440;28;45423;-81
2022/06/09 09:36:37;;;;;;;;;2.00;2.00;;;;;24.31;40.67;101417.84;5031673;28;45489;-86
2022/06/09 09:39:08;;;;;;;;;3.50;1.50;;;;;24.61;40.55;101494.13;5042684;28;47611;-84
2022/06/09 09:41:38;;;;;;;;;3.00;1.67;;;;;24.29;40.35;101471.63;5033487;28;45553;-87
2022/06/09 09:44:20;;;;;;;;;2.50;2.00;;;;;24.34;40.91;101486.53;5032525;28;45474;-86
2022/06/09 09:47:32;;;;;;;;;2.50;2.00;;;;;24.54;41.09;101487.50;5029056;28;45452;-84
2022/06/09 09:50:32;;;;;;;;;3.00;2.50;;;;;24.69;40.61;101487.94;5032167;28;45636;-86
2022/06/09 09:53:05;;;;;;;;;2.00;1.00;;;;;24.16;39.73;101322.91;5030845;28;45474;-85
2022/06/09 09:55:40;;;;;;;;;1.67;1.67;;;;;25.89;39.30;101439.34;5035707;28;45550;-91
2022/06/09 09:58:17;;;;;;;;;2.00;2.00;;;;;27.01;37.57;101487.44;5026593;28;45522;-91
2022/06/09 10:00:51;;;;;;;;;1.00;1.00;;;;;26.24;35.85;101380.31;5030520;28;46335;-85
2022/06/09 10:09:51;;;;;;;;;1.00;1.00;;;;;26.95;36.08;101501.78;5031655;28;45712;-82
2022/06/09 10:12:23;;;;;;;;;1.00;1.00;;;;;26.64;36.58;101512.19;5030512;28;45574;-86
2022/06/09 10:15:10;;;;;;;;;1.50;1.25;;;;;26.28;36.47;101509.34;5032316;28;45541;-86
2022/06/09 10:17:54;;;;;;;;;2.50;2.00;;;;;25.68;36.20;101466.84;5024675;28;45758;-87
2022/06/09 10:20:30;;;;;;;;;0.00;0.00;;;;;25.63;36.92;101522.88;5027450;28;45482;-89
2022/06/09 10:23:11;;;;;;;;;2.75;1.00;;;;;25.26;37.01;101521.78;5030833;28;45692;-88
2022/06/09 10:25:36;;;;;;;;;4.00;1.75;;;;;25.04;37.03;101527.47;5034814;28;45727;-84
2022/06/09 10:28:20;;;;;;;;;1.50;1.50;;;;;24.77;37.83;101529.03;5032371;28;45467;-88
2022/06/09 10:31:10;;;;;;;;;1.00;1.00;;;;;24.19;37.72;101467.00;5031741;28;45407;-92
2022/06/09 10:33:44;;;;;;;;;2.00;2.00;;;;;24.39;37.80;101532.44;5036128;28;46330;-91
2022/06/09 10:36:48;;;;;;;;;4.00;1.00;;;;;23.35;38.44;101371.03;5032886;28;45516;-88
2022/06/09 10:39:31;;;;;;;;;1.25;1.25;;;;;24.18;38.94;101524.34;5027834;28;45834;-84
2022/06/09 10:42:02;;;;;;;;;2.00;2.00;;;;;24.17;38.56;101519.91;5035222;28;45621;-87
2022/06/09 10:44:52;;;;;;;;;1.00;1.00;;;;;23.78;39.13;101459.78;5039838;28;47222;-83
2022/06/09 10:56:57;;;;;;;;;2.00;2.00;;;;;23.93;39.13;101510.19;5029009;28;45512;-88
2022/06/09 10:59:39;;;;;;;;;1.25;1.00;;;;;24.11;39.71;101544.94;5027252;28;45687;-89
2022/06/09 11:02:16;;;;;;;;;1.00;1.00;;;;;24.33;38.89;101539.31;5030311;28;45514;-96
2022/06/09 11:04:42;;;;;;;;;5.50;3.00;;;;;24.58;39.55;101513.50;5035449;28;45748;-94
2022/06/09 11:07:45;;;;;;;;;1.00;1.00;;;;;25.20;38.60;101535.13;5025948;28;45554;-86
2022/06/09 11:10:47;;;;;;;;;3.00;1.00;;;;;25.42;37.52;101501.22;5039278;22;45857;-94
2022/06/09 11:13:25;;;;;;;;;0.75;0.75;;;;;25.75;37.00;101524.44;5047182;28;45701;-94
2022/06/09 11:16:58;;;;;;;;;1.00;1.00;;;;;25.90;36.00;101539.38;5052190;28;45495;-96
2022/06/09 11:19:51;;;;;;;;;4.75;2.00;;;;;25.86;35.60;101513.38;5008754;28;46301;-95
2022/06/09 11:22:51;;;;;;;;;1.50;1.00;;;;;25.86;35.91;101546.16;5006124;28;45501;-92
2022/06/09 11:25:43;;;;;;;;;1.50;1.50;;;;;25.37;35.87;101490.72;5007305;28;45472;-90
2022/06/09 11:28:24;;;;;;;;;1.00;1.00;;;;;25.64;35.62;101552.78;5006884;28;45496;-89
2022/06/09 11:31:04;;;;;;;;;2.00;0.25;;;;;25.70;35.77;101543.13;5009997;28;46967;-81
2022/06/09 11:33:45;;;;;;;;;1.00;1.00;;;;;25.83;35.78;101545.56;5010580;28;45777;-84
2022/06/09 11:36:28;;;;;;;;;2.00;2.00;;;;;25.70;34.92;101499.44;5008199;28;45624;-84
2022/06/09 11:39:05;;;;;;;;;1.00;1.00;;;;;26.14;34.99;101545.34;5006088;28;45632;-84
2022/06/09 11:41:33;;;;;;;;;1.00;1.00;;;;;26.25;35.19;101536.97;5008740;28;45601;-83
2022/06/09 11:44:13;;;;;;;;;1.00;1.00;;;;;26.36;34.91;101539.50;5009207;28;45414;-84
2022/06/09 11:46:41;;;;;;;;;2.50;1.25;;;;;26.32;34.48;101547.16;5003572;28;45371;-85
2022/06/09 11:49:26;;;;;;;;;0.25;0.25;;;;;26.13;35.00;101543.63;5010625;28;45513;-83
2022/06/09 11:51:53;;;;;;;;;1.00;1.00;;;;;25.64;34.69;101505.50;4999382;28;48499;-85
2022/06/09 11:54:39;;;;;;;;;1.00;1.00;;;;;25.80;34.96;101537.63;5051417;28;45457;-87
2022/06/09 11:57:20;;;;;;;;;1.00;1.00;;;;;25.88;36.00;101543.28;5052228;28;45466;-82
2022/06/09 11:59:57;;;;;;;;;1.00;1.00;;;;;25.99;34.06;101544.94;5053226;28;45339;-86
2022/06/09 12:02:44;;;;;;;;;2.00;1.00;;;;;26.16;34.29;101548.81;5056976;28;46940;-94
2022/06/09 12:05:34;;;;;;;;;1.50;1.00;;;;;26.21;39.55;101544.59;5064176;28;45564;-96
2022/06/09 12:08:15;;;;;;;;;1.00;1.00;;;;;26.13;38.32;101527.22;5064102;28;45343;-92
2022/06/09 12:11:00;;;;;;;;;2.75;1.00;;;;;25.92;39.61;101502.84;5058135;28;45537;-95
2022/06/09 12:13:33;;;;;;;;;1.00;1.00;;;;;25.90;38.19;101524.88;5052094;28;45826;-91